Time;durP1;ratioP1;P1;durP2;ratioP2;P2;SDS_P1;SDS_P2;PMS_P1;PMS_P2;Temp;Humidity;BMP_temperature;BMP_pressure;BME280_temperature;BME280_humidity;BME280_pressure;Samples;Min_cycle;Max_cycle;Signal;HPM_P1;HPM_P2
2022/06/12 00:00:47;;;;;;;2.67;1.10;;;;;;;29.32;40.02;101123.41;5052630;28;20041;-70
2022/06/12 00:03:16;;;;;;;3.05;1.17;;;;;;;28.95;40.98;101116.59;5052449;28;20021;-69
2022/06/12 00:05:47;;;;;;;5.35;1.30;;;;;;;29.14;40.70;101122.56;5047335;28;20482;-70
2022/06/12 00:08:14;;;;;;;5.35;1.30;;;;;;;29.24;40.86;101122.25;5032734;28;20112;-70
2022/06/12 00:10:44;;;;;;;2.17;0.90;;;;;;;29.10;39.93;101111.41;5035878;28;20445;-68
2022/06/12 00:13:12;;;;;;;6.65;1.40;;;;;;;29.33;39.97;101119.50;5052802;28;20029;-71
2022/06/12 00:15:39;;;;;;;1.80;0.93;;;;;;;29.26;40.08;101114.47;5052607;28;20025;-69
2022/06/12 00:18:05;;;;;;;2.90;0.90;;;;;;;28.91;41.31;101108.09;5033771;28;20057;-69
2022/06/12 00:20:32;;;;;;;4.50;1.10;;;;;;;29.05;41.55;101116.25;5052237;28;20029;-68
2022/06/12 00:22:59;;;;;;;2.83;1.10;;;;;;;28.93;40.83;101108.66;5039892;28;20554;-69
2022/06/12 00:25:29;;;;;;;4.28;1.40;;;;;;;28.71;40.40;101117.03;5032199;28;20112;-67
2022/06/12 00:27:56;;;;;;;2.78;1.00;;;;;;;27.95;42.69;101106.22;5045157;28;20031;-67
2022/06/12 00:30:25;;;;;;;3.67;1.38;;;;;;;28.07;42.41;101103.66;5051043;28;20107;-68
2022/06/12 00:32:54;;;;;;;6.78;1.35;;;;;;;28.15;42.24;101094.63;5051700;28;20056;-67
2022/06/12 00:35:27;;;;;;;3.40;0.98;;;;;;;28.30;42.82;101093.38;5049517;28;20033;-66
2022/06/12 00:37:54;;;;;;;3.90;1.00;;;;;;;28.15;42.67;101095.47;5033046;28;20094;-66
2022/06/12 00:40:21;;;;;;;2.80;1.10;;;;;;;28.17;42.22;101083.31;5051311;28;20029;-65
2022/06/12 00:42:55;;;;;;;4.68;1.25;;;;;;;28.25;42.52;101085.28;5051058;28;20037;-66
2022/06/12 00:45:48;;;;;;;3.88;1.23;;;;;;;27.93;43.47;101076.28;5050965;28;20021;-67
2022/06/12 00:48:27;;;;;;;8.00;1.50;;;;;;;27.95;43.51;101074.00;5050120;28;20045;-63
2022/06/12 00:50:58;;;;;;;5.90;1.38;;;;;;;27.78;42.92;101071.19;5051849;28;20482;-64
2022/06/12 00:53:46;;;;;;;6.95;1.73;;;;;;;27.82;42.78;101069.44;5050657;28;20032;-62
2022/06/12 00:56:18;;;;;;;3.60;1.42;;;;;;;27.54;44.23;101064.06;5049747;28;20500;-66
2022/06/12 00:58:53;;;;;;;4.88;1.10;;;;;;;27.44;44.08;101064.34;5051695;28;20500;-65
2022/06/12 01:01:28;;;;;;;4.35;1.00;;;;;;;27.40;44.25;101059.78;5051547;28;20021;-66
2022/06/12 01:06:39;;;;;;;3.90;1.20;;;;;;;27.12;44.48;101057.16;5036316;28;20088;-67
2022/06/12 01:09:11;;;;;;;3.25;0.88;;;;;;;26.91;44.96;101045.00;5044501;28;20033;-67
2022/06/12 01:11:42;;;;;;;2.97;1.30;;;;;;;26.88;45.76;101051.94;5048221;28;20404;-67
2022/06/12 01:14:12;;;;;;;3.30;1.40;;;;;;;26.88;46.50;101049.19;5035557;28;20095;-58
2022/06/12 01:16:44;;;;;;;5.30;1.70;;;;;;;26.73;46.45;101049.53;5051513;28;20347;-57
2022/06/12 01:19:39;;;;;;;2.30;1.15;;;;;;;26.77;46.08;101045.06;5044999;28;20034;-57
2022/06/12 01:22:34;;;;;;;3.80;1.25;;;;;;;26.66;46.03;101032.69;5035605;28;20083;-58
2022/06/12 01:25:18;;;;;;;2.75;1.17;;;;;;;26.47;46.16;101044.59;5039817;28;20513;-61
2022/06/12 01:28:19;;;;;;;4.20;1.20;;;;;;;26.56;46.08;101044.69;5044199;28;20025;-61
2022/06/12 01:31:10;;;;;;;3.05;0.98;;;;;;;26.28;47.06;101038.41;5023233;28;20473;-56
2022/06/12 01:34:12;;;;;;;3.58;1.20;;;;;;;26.15;47.03;101048.28;5028226;28;20038;-56
2022/06/12 01:36:50;;;;;;;4.63;1.15;;;;;;;26.11;46.85;101043.72;5005477;28;20041;-58
2022/06/12 01:39:26;;;;;;;5.95;0.93;;;;;;;25.87;46.81;101039.22;5011518;28;20033;-59
2022/06/12 01:42:03;;;;;;;5.03;1.27;;;;;;;25.69;48.00;101045.56;5024087;28;20029;-61
2022/06/12 01:44:40;;;;;;;2.45;1.10;;;;;;;25.58;47.97;101049.63;5018176;28;20029;-61
2022/06/12 01:47:23;;;;;;;5.53;1.40;;;;;;;25.63;48.11;101039.38;5026258;28;20042;-61
2022/06/12 01:50:01;;;;;;;5.30;1.40;;;;;;;25.88;47.48;101051.84;5027249;28;20037;-61
2022/06/12 01:52:55;;;;;;;5.85;1.70;;;;;;;25.61;47.76;101046.28;5026093;28;20418;-61
2022/06/12 01:55:44;;;;;;;7.32;1.20;;;;;;;25.57;47.80;101053.47;5028994;28;20160;-60
2022/06/12 01:58:19;;;;;;;4.90;1.50;;;;;;;25.62;47.52;101073.38;5030108;28;20033;-60
2022/06/12 02:00:52;;;;;;;5.63;1.70;;;;;;;25.76;47.51;101065.22;5032458;28;20071;-60
2022/06/12 02:03:22;;;;;;;2.97;1.05;;;;;;;26.06;46.76;101063.81;5054540;28;20051;-60
2022/06/12 02:06:13;;;;;;;3.50;1.10;;;;;;;25.98;47.23;101064.53;5042926;28;20029;-63
2022/06/12 02:08:47;;;;;;;2.53;1.05;;;;;;;26.57;46.13;101063.59;5054748;28;20166;-63
2022/06/12 02:14:10;;;;;;;;;;;;;;;26.88;44.40;101059.38;5054992;28;20052;-63
2022/06/12 02:16:42;;;;;;;2.97;0.98;;;;;;;27.21;44.27;101059.97;5054668;28;19913;-62
2022/06/12 02:19:15;;;;;;;3.50;1.20;;;;;;;27.58;42.84;101048.56;5050180;28;20022;-62
2022/06/12 02:21:58;;;;;;;4.70;1.15;;;;;;;27.64;42.82;101044.53;5034721;28;20037;-62
2022/06/12 02:24:26;;;;;;;5.95;1.50;;;;;;;27.73;42.70;101044.63;5034328;28;20043;-62
2022/06/12 02:27:29;;;;;;;1.52;0.73;;;;;;;27.54;42.55;101047.59;5034605;28;20116;-62
2022/06/12 02:30:06;;;;;;;4.55;1.20;;;;;;;27.87;41.87;101052.75;5053976;28;20033;-62
2022/06/12 02:32:38;;;;;;;1.65;0.93;;;;;;;27.72;41.87;101055.94;5045509;28;20099;-63
2022/06/12 02:35:14;;;;;;;3.10;1.02;;;;;;;27.20;43.17;101042.66;5053866;28;20025;-63
2022/06/12 02:37:48;;;;;;;3.00;1.35;;;;;;;27.36;42.84;101056.84;5037282;28;20035;-63
2022/06/12 02:40:20;;;;;;;;;;;;;;;27.32;42.93;101053.09;5038525;28;20040;-63
2022/06/12 02:42:49;;;;;;;3.25;1.13;;;;;;;27.39;42.58;101053.47;5034477;28;20330;-63
2022/06/12 02:45:50;;;;;;;2.47;1.10;;;;;;;27.10;43.43;101060.22;5024660;28;20029;-63
2022/06/12 02:48:17;;;;;;;2.78;1.17;;;;;;;27.26;43.11;101062.56;5017711;28;20041;-63
2022/06/12 02:51:08;;;;;;;1.88;0.90;;;;;;;26.91;43.41;101051.31;5042881;28;20075;-63
2022/06/12 02:53:58;;;;;;;2.53;1.08;;;;;;;26.39;44.66;101060.97;5053316;28;20025;-64
2022/06/12 02:56:33;;;;;;;2.20;1.15;;;;;;;26.08;45.73;101061.59;5049292;28;20029;-63
2022/06/12 02:59:42;;;;;;;2.08;1.05;;;;;;;26.02;45.59;101057.31;5033453;28;20025;-63
2022/06/12 03:02:16;;;;;;;2.08;0.90;;;;;;;25.84;45.94;101059.03;5050356;28;20159;-63
2022/06/12 03:05:00;;;;;;;3.13;1.00;;;;;;;25.82;46.05;101069.50;5033508;28;20108;-64
2022/06/12 03:07:29;;;;;;;1.95;0.93;;;;;;;25.64;46.28;101067.59;5037977;28;20022;-64
2022/06/12 03:09:59;;;;;;;2.47;1.00;;;;;;;24.99;47.68;101069.19;5032598;28;20032;-64
2022/06/12 03:12:28;;;;;;;1.75;0.90;;;;;;;24.24;49.69;101061.69;5034756;28;20482;-64
2022/06/12 03:14:55;;;;;;;2.30;1.30;;;;;;;24.02;50.15;101057.84;5032915;28;20056;-64
2022/06/12 03:17:22;;;;;;;2.92;1.20;;;;;;;23.55;51.59;101057.50;5033910;28;20091;-64
2022/06/12 03:19:54;;;;;;;1.70;1.05;;;;;;;23.51;51.68;101066.53;5044327;28;20036;-64
2022/06/12 03:22:43;;;;;;;3.83;1.23;;;;;;;23.12;52.92;101056.50;5053158;28;20060;-64
2022/06/12 03:25:09;;;;;;;4.30;0.95;;;;;;;22.29;55.00;101057.22;5049796;28;20029;-64
2022/06/12 03:27:53;;;;;;;3.92;1.30;;;;;;;21.63;56.93;101041.81;5052672;28;20072;-64
2022/06/12 03:30:26;;;;;;;2.97;0.98;;;;;;;21.19;58.40;101053.25;5052969;28;20025;-64
2022/06/12 03:33:49;;;;;;;3.28;1.00;;;;;;;20.76;60.49;101044.47;5032494;28;20551;-63
2022/06/12 03:36:25;;;;;;;2.38;0.90;;;;;;;20.63;60.55;101046.91;4952539;28;20464;-64
2022/06/12 03:39:00;;;;;;;2.38;1.02;;;;;;;20.29;61.55;101059.00;5021571;28;20045;-64
2022/06/12 03:41:38;;;;;;;2.17;1.00;;;;;;;20.10;62.12;101062.41;5040017;28;20147;-64
2022/06/12 03:44:12;;;;;;;3.80;1.17;;;;;;;19.98;62.83;101062.63;5052319;28;20037;-64
2022/06/12 03:46:56;;;;;;;2.45;0.93;;;;;;;19.70;63.85;101053.75;5052592;28;20033;-64
2022/06/12 03:49:38;;;;;;;1.60;1.20;;;;;;;19.53;64.33;101056.59;5052501;28;20055;-64
2022/06/12 03:52:14;;;;;;;3.38;1.52;;;;;;;19.61;64.42;101068.94;5052670;28;20025;-64
2022/06/12 03:54:47;;;;;;;2.15;1.58;;;;;;;19.63;64.80;101069.47;5051884;28;20021;-64
2022/06/12 04:00:42;;;;;;;2.88;1.20;;;;;;;19.32;64.97;101071.13;5032728;28;20128;-64
2022/06/12 04:03:37;;;;;;;1.95;1.08;;;;;;;18.99;66.17;101075.69;5032137;28;20033;-64
2022/06/12 04:06:08;;;;;;;2.00;1.20;;;;;;;19.07;66.17;101068.97;5030159;28;20030;-64
2022/06/12 04:08:39;;;;;;;3.25;1.23;;;;;;;18.99;66.60;101067.56;5032362;28;20026;-64
2022/06/12 04:11:08;;;;;;;3.05;1.33;;;;;;;18.97;66.37;101061.56;5031956;28;20024;-64
2022/06/12 04:13:40;;;;;;;4.30;1.70;;;;;;;18.71;67.10;101065.91;5030787;28;20025;-64
2022/06/12 04:16:43;;;;;;;3.33;1.30;;;;;;;18.82;66.85;101063.28;5042196;28;20100;-64
2022/06/12 04:19:15;;;;;;;2.05;1.10;;;;;;;18.48;67.77;101064.25;5032052;28;20040;-64
2022/06/12 04:22:06;;;;;;;1.65;1.15;;;;;;;18.39;68.01;101073.09;5034316;28;20505;-64
2022/06/12 04:24:42;;;;;;;1.88;1.08;;;;;;;18.14;68.85;101070.84;5031387;28;20108;-64
2022/06/12 04:27:14;;;;;;;2.10;1.17;;;;;;;18.16;68.75;101074.97;5083529;23;20048;-64
2022/06/12 04:29:50;;;;;;;2.92;1.23;;;;;;;18.23;68.53;101091.03;5092090;28;20369;-64
2022/06/12 04:32:17;;;;;;;2.63;1.00;;;;;;;18.28;67.99;101090.28;5090321;28;20536;-64
2022/06/12 04:34:43;;;;;;;1.00;0.70;;;;;;;18.21;67.82;101098.56;5071359;28;20477;-64
2022/06/12 04:37:14;;;;;;;1.20;0.98;;;;;;;18.08;68.20;101104.38;5071927;28;20020;-64
2022/06/12 04:39:40;;;;;;;1.95;0.80;;;;;;;17.96;68.19;101100.94;5071348;28;20032;-64
2022/06/12 04:42:07;;;;;;;2.40;1.00;;;;;;;18.04;68.23;101111.34;5071696;28;20028;-65
2022/06/12 04:44:34;;;;;;;1.75;1.00;;;;;;;17.68;69.21;101110.78;5071364;28;20068;-65
2022/06/12 04:47:03;;;;;;;1.92;0.98;;;;;;;17.66;69.37;101105.63;5070284;28;20399;-65
2022/06/12 04:49:33;;;;;;;2.92;1.17;;;;;;;17.70;69.76;101114.06;5072250;28;20105;-65
2022/06/12 04:52:01;;;;;;;1.20;1.05;;;;;;;17.90;68.65;101124.41;5071565;28;20098;-65
2022/06/12 04:54:29;;;;;;;2.72;1.50;;;;;;;17.96;68.38;101123.44;5070180;28;20392;-64
2022/06/12 04:56:57;;;;;;;2.33;1.35;;;;;;;17.90;68.53;101114.41;5071683;28;20430;-65
2022/06/12 04:59:23;;;;;;;2.85;1.60;;;;;;;18.00;68.20;101119.16;5071701;28;20025;-65
2022/06/12 05:01:49;;;;;;;3.25;1.65;;;;;;;17.84;69.04;101126.22;5071509;28;20052;-65
2022/06/12 05:04:17;;;;;;;4.30;1.67;;;;;;;17.64;69.85;101118.56;5071211;28;20472;-65
2022/06/12 05:06:44;;;;;;;2.80;1.60;;;;;;;17.62;69.68;101112.59;5072309;28;20028;-65
2022/06/12 05:09:14;;;;;;;3.08;1.20;;;;;;;17.69;69.76;101121.34;5074964;28;20021;-65
2022/06/12 05:11:41;;;;;;;3.35;1.30;;;;;;;17.68;69.59;101121.59;5071318;28;20017;-65
2022/06/12 05:14:07;;;;;;;2.20;1.30;;;;;;;17.51;70.26;101124.31;5083597;28;20024;-65
2022/06/12 05:16:43;;;;;;;2.05;1.08;;;;;;;17.56;70.34;101137.13;5085218;28;20031;-65
2022/06/12 05:19:14;;;;;;;1.80;1.30;;;;;;;17.46;71.07;101129.63;5071369;28;20469;-65
2022/06/12 05:21:41;;;;;;;1.30;1.02;;;;;;;17.47;71.09;101123.16;5070852;28;20028;-65
2022/06/12 05:24:09;;;;;;;1.25;1.10;;;;;;;17.30;72.26;101136.66;5070965;28;20032;-65
2022/06/12 05:26:38;;;;;;;2.53;1.33;;;;;;;17.36;71.46;101124.84;5086142;28;20078;-65
2022/06/12 05:29:07;;;;;;;1.60;1.20;;;;;;;17.32;71.74;101139.97;5091538;28;20020;-65
2022/06/12 05:31:34;;;;;;;2.58;1.30;;;;;;;17.53;71.14;101133.00;5082187;28;20020;-65
2022/06/12 05:34:00;;;;;;;1.65;1.15;;;;;;;17.56;70.66;101132.53;5093548;28;20480;-65
2022/06/12 05:36:27;;;;;;;2.22;1.40;;;;;;;17.61;70.86;101129.91;5080492;28;20168;-65
2022/06/12 05:38:53;;;;;;;2.85;1.42;;;;;;;17.48;71.77;101127.50;5074640;28;20497;-65
2022/06/12 05:41:20;;;;;;;2.78;1.30;;;;;;;17.53;71.55;101122.16;5074664;28;20039;-65
2022/06/12 05:43:46;;;;;;;3.95;1.48;;;;;;;17.39;72.34;101115.44;5087666;28;20089;-65
2022/06/12 05:46:15;;;;;;;3.63;1.50;;;;;;;17.23;72.99;101111.66;5082853;28;20388;-65
2022/06/12 05:48:42;;;;;;;2.25;1.00;;;;;;;17.45;72.31;101130.69;5074733;28;20028;-65
2022/06/12 05:51:11;;;;;;;1.88;0.93;;;;;;;17.49;72.13;101133.72;5074595;28;20113;-65
2022/06/12 05:53:37;;;;;;;2.80;0.95;;;;;;;17.66;71.58;101132.69;5074381;28;20032;-65
2022/06/12 05:56:10;;;;;;;1.02;0.80;;;;;;;17.53;71.89;101127.56;5074319;28;20056;-66
2022/06/12 05:58:37;;;;;;;1.55;0.98;;;;;;;17.52;72.25;101128.66;5074259;28;20028;-66
2022/06/12 06:01:06;;;;;;;3.65;1.20;;;;;;;17.43;72.68;101122.00;5094285;28;20028;-65
2022/06/12 06:03:33;;;;;;;2.20;1.50;;;;;;;17.47;72.61;101119.63;5093209;28;20063;-65
2022/06/12 06:06:00;;;;;;;2.38;1.60;;;;;;;17.42;72.43;101110.34;5094478;28;20082;-65
2022/06/12 06:08:27;;;;;;;3.25;1.90;;;;;;;17.25;72.94;101106.00;5085822;28;20028;-65
2022/06/12 06:10:53;;;;;;;2.25;1.35;;;;;;;17.45;72.75;101100.13;5074289;28;20036;-66
2022/06/12 06:13:20;;;;;;;4.15;1.73;;;;;;;17.46;72.89;101101.75;5085971;28;20028;-65
2022/06/12 06:15:50;;;;;;;2.17;1.60;;;;;;;17.15;73.98;101107.44;5094597;28;20534;-65
2022/06/12 06:18:17;;;;;;;2.33;1.55;;;;;;;17.24;73.58;101110.56;5080530;28;20068;-66
2022/06/12 06:20:44;;;;;;;1.63;1.10;;;;;;;17.21;73.91;101105.66;5088540;28;20440;-66
2022/06/12 06:23:11;;;;;;;3.05;1.00;;;;;;;17.32;73.54;101110.19;5081337;28;20032;-66
2022/06/12 06:25:38;;;;;;;0.90;0.85;;;;;;;17.38;73.73;101103.81;5073628;28;20077;-66
2022/06/12 06:28:06;;;;;;;4.07;1.20;;;;;;;17.39;72.97;101101.91;5074194;28;20040;-66
2022/06/12 06:30:32;;;;;;;4.05;1.20;;;;;;;17.37;73.08;101114.84;5074427;28;20033;-66
2022/06/12 06:32:59;;;;;;;2.42;1.10;;;;;;;17.32;72.75;101110.19;5073641;28;20033;-66
2022/06/12 06:35:26;;;;;;;1.40;0.70;;;;;;;17.25;71.99;101101.41;5086288;28;20031;-66
2022/06/12 06:37:53;;;;;;;2.03;0.80;;;;;;;17.29;71.45;101101.75;5085773;28;20056;-65
2022/06/12 06:40:22;;;;;;;1.17;0.73;;;;;;;17.08;71.92;101106.78;5087002;28;20035;-66
2022/06/12 06:42:48;;;;;;;1.88;0.90;;;;;;;16.72;72.83;101099.88;5085009;28;20024;-65
2022/06/12 06:48:02;;;;;;;3.67;0.80;;;;;;;16.67;73.28;101093.53;5074018;28;20039;-66
2022/06/12 06:50:29;;;;;;;1.75;1.08;;;;;;;16.53;74.16;101088.38;5073585;28;20036;-66
2022/06/12 06:52:55;;;;;;;2.17;1.10;;;;;;;16.46;74.24;101079.59;5073072;28;20028;-66
2022/06/12 06:55:21;;;;;;;2.95;1.10;;;;;;;16.34;74.70;101082.31;5073618;28;20544;-66
2022/06/12 06:57:49;;;;;;;2.13;0.90;;;;;;;16.60;73.78;101078.28;5073329;28;20166;-66
2022/06/12 07:00:23;;;;;;;1.10;1.00;;;;;;;16.51;73.52;101063.50;5073475;28;20469;-66
2022/06/12 07:02:49;;;;;;;0.98;0.60;;;;;;;16.57;73.17;101057.13;5093163;28;20157;-66
2022/06/12 07:05:16;;;;;;;1.48;0.80;;;;;;;16.41;74.17;101059.75;5089367;28;20032;-66
2022/06/12 07:07:42;;;;;;;1.33;1.00;;;;;;;16.26;74.58;101052.16;5093683;28;20123;-66
2022/06/12 07:10:13;;;;;;;3.70;1.83;;;;;;;16.09;75.41;101047.47;5092413;28;20067;-66
2022/06/12 07:12:39;;;;;;;2.20;0.85;;;;;;;16.36;74.93;101055.88;5074725;28;20078;-66
2022/06/12 07:15:06;;;;;;;1.00;0.60;;;;;;;16.45;74.40;101052.81;5079914;28;20089;-66
2022/06/12 07:17:33;;;;;;;2.38;0.65;;;;;;;16.46;74.76;101044.47;5093057;28;20444;-66
2022/06/12 07:19:59;;;;;;;0.65;0.50;;;;;;;16.44;74.57;101045.78;5090683;28;20027;-66
2022/06/12 07:22:25;;;;;;;0.40;0.40;;;;;;;16.50;74.62;101036.72;5093359;28;20050;-66
2022/06/12 07:24:52;;;;;;;3.70;2.47;;;;;;;16.39;75.67;101038.41;5082806;28;20032;-66
2022/06/12 07:27:18;;;;;;;5.70;1.95;;;;;;;16.44;75.59;101043.91;5071421;28;20059;-66
2022/06/12 07:29:44;;;;;;;1.13;0.60;;;;;;;16.67;74.64;101028.66;5077551;28;20024;-66
2022/06/12 07:32:11;;;;;;;5.95;2.78;;;;;;;16.53;75.56;101017.31;5083158;28;20388;-66
2022/06/12 07:34:37;;;;;;;8.00;3.33;;;;;;;16.58;75.81;101014.69;5070094;28;20389;-66
2022/06/12 07:37:07;;;;;;;2.50;1.40;;;;;;;16.54;76.07;101011.66;5071464;28;20024;-66
2022/06/12 07:39:34;;;;;;;5.78;2.65;;;;;;;16.79;75.32;101005.94;5072791;28;20058;-66
2022/06/12 07:42:00;;;;;;;3.17;1.33;;;;;;;16.80;75.03;100994.06;5072676;28;20067;-66
2022/06/12 07:44:30;;;;;;;1.58;0.73;;;;;;;16.89;74.75;100989.91;5070367;28;20111;-66
2022/06/12 07:46:58;;;;;;;0.80;0.55;;;;;;;16.87;74.88;100988.50;5078774;28;20480;-66
2022/06/12 07:49:28;;;;;;;1.50;1.13;;;;;;;17.05;74.41;100982.88;5092722;28;20028;-67
2022/06/12 07:51:56;;;;;;;2.22;0.77;;;;;;;16.75;75.47;100987.75;5076427;28;20028;-66
2022/06/12 07:54:23;;;;;;;0.70;0.50;;;;;;;16.90;74.56;100977.19;5070255;28;20052;-66
2022/06/12 07:56:50;;;;;;;0.60;0.60;;;;;;;16.94;74.45;100981.06;5072048;28;20062;-66
2022/06/12 07:59:16;;;;;;;1.83;0.70;;;;;;;16.86;74.98;100974.16;5071421;28;20023;-66
2022/06/12 08:01:43;;;;;;;0.75;0.65;;;;;;;16.82;74.71;100975.72;5072599;28;20085;-66
2022/06/12 08:04:11;;;;;;;1.65;0.90;;;;;;;16.81;74.27;100965.13;5070463;28;20132;-67
2022/06/12 08:06:38;;;;;;;1.13;0.65;;;;;;;16.70;74.60;100964.13;5070392;28;20020;-66
2022/06/12 08:09:07;;;;;;;2.08;0.70;;;;;;;16.77;74.95;100950.50;5072917;28;20028;-66
2022/06/12 08:11:35;;;;;;;0.75;0.60;;;;;;;16.67;75.40;100951.09;5071672;28;20099;-67
2022/06/12 08:14:01;;;;;;;0.80;0.80;;;;;;;16.76;75.31;100951.53;5074010;28;20035;-66
2022/06/12 08:16:28;;;;;;;1.70;0.77;;;;;;;16.70;75.50;100941.69;5071367;28;20488;-66
2022/06/12 08:18:54;;;;;;;1.45;0.73;;;;;;;16.76;75.24;100938.03;5068416;28;20613;-66
2022/06/12 08:21:21;;;;;;;0.70;0.70;;;;;;;16.64;75.51;100938.88;5071738;28;20489;-66
2022/06/12 08:23:51;;;;;;;1.08;0.70;;;;;;;16.74;74.84;100940.16;5071549;28;20076;-66
2022/06/12 08:26:22;;;;;;;1.98;0.93;;;;;;;16.66;74.92;100930.56;5070893;28;20538;-66
2022/06/12 08:28:55;;;;;;;1.88;1.55;;;;;;;16.71;75.12;100943.34;5074898;28;20043;-66
2022/06/12 08:31:30;;;;;;;0.75;0.75;;;;;;;16.70;74.47;100942.50;5086975;28;20028;-66
2022/06/12 08:34:01;;;;;;;1.67;1.58;;;;;;;16.74;74.75;100945.56;5071706;28;20028;-66
2022/06/12 08:36:29;;;;;;;0.77;0.77;;;;;;;16.75;74.29;100929.09;5081677;28;20346;-67
2022/06/12 08:38:55;;;;;;;0.95;0.85;;;;;;;16.79;74.10;100924.03;5076135;28;20395;-66
2022/06/12 08:41:52;;;;;;;1.27;0.80;;;;;;;16.86;73.40;100928.19;5079774;28;20024;-66
2022/06/12 08:44:34;;;;;;;0.90;0.68;;;;;;;16.75;74.26;100925.56;5080986;28;20545;-67
2022/06/12 08:47:12;;;;;;;2.05;0.75;;;;;;;16.79;73.98;100930.25;5089456;28;20055;-67
2022/06/12 08:49:57;;;;;;;2.10;1.17;;;;;;;16.86;73.65;100930.09;5089383;28;20035;-66
2022/06/12 08:52:32;;;;;;;0.82;0.80;;;;;;;16.98;73.23;100928.13;5089060;28;20457;-66
2022/06/12 08:55:26;;;;;;;1.17;1.00;;;;;;;16.81;74.03;100930.00;5084911;28;20436;-66
2022/06/12 08:57:56;;;;;;;1.08;0.80;;;;;;;16.92;73.58;100921.00;5091785;28;20035;-67
2022/06/12 09:00:29;;;;;;;1.10;0.70;;;;;;;16.68;74.56;100924.91;5072594;28;20031;-67
2022/06/12 09:02:56;;;;;;;1.20;1.05;;;;;;;16.70;74.74;100920.06;5068695;28;20422;-66
2022/06/12 09:05:51;;;;;;;1.00;0.90;;;;;;;16.66;74.92;100921.59;5070948;28;20032;-67
2022/06/12 09:08:25;;;;;;;1.10;0.98;;;;;;;16.44;75.95;100919.63;5031889;28;20037;-67
2022/06/12 09:11:33;;;;;;;1.23;0.75;;;;;;;16.48;75.73;100923.47;5075666;28;20107;-67
2022/06/12 09:14:20;;;;;;;0.75;0.75;;;;;;;16.47;75.33;100918.31;5074465;28;20041;-67
2022/06/12 09:17:28;;;;;;;1.00;0.63;;;;;;;16.58;74.99;100923.63;5075498;28;20081;-67
2022/06/12 09:20:11;;;;;;;0.70;0.70;;;;;;;16.45;75.39;100928.53;5071738;28;20048;-67
2022/06/12 09:23:10;;;;;;;1.95;1.42;;;;;;;16.54;74.90;100925.19;5073083;28;20032;-67
2022/06/12 09:26:00;;;;;;;2.28;1.80;;;;;;;16.49;74.75;100913.47;5073246;28;20033;-67
2022/06/12 09:28:26;;;;;;;2.13;1.73;;;;;;;16.43;74.73;100903.63;5088678;28;20055;-67
2022/06/12 09:31:14;;;;;;;1.67;1.45;;;;;;;16.47;74.60;100908.31;5075593;28;20099;-67
2022/06/12 09:34:07;;;;;;;0.98;0.88;;;;;;;16.47;74.46;100904.78;5073589;28;20132;-67
2022/06/12 09:36:56;;;;;;;0.88;0.50;;;;;;;16.39;75.06;100906.03;5075180;28;20028;-66
2022/06/12 09:39:28;;;;;;;0.55;0.55;;;;;;;16.44;74.80;100900.72;5074845;28;20067;-66
2022/06/12 09:42:03;;;;;;;0.90;0.68;;;;;;;16.35;74.76;100899.47;5077870;28;20071;-67
2022/06/12 09:44:42;;;;;;;;;;;;;;;16.26;75.11;100906.31;5087206;28;20035;-67
2022/06/12 09:47:31;;;;;;;0.75;0.40;;;;;;;16.29;75.00;100914.75;5078183;28;19912;-67
2022/06/12 09:50:05;;;;;;;0.73;0.38;;;;;;;16.03;75.67;100913.44;5064460;28;20085;-67
2022/06/12 09:52:49;;;;;;;1.98;0.50;;;;;;;16.00;75.72;100918.53;5070829;28;20401;-68
2022/06/12 09:55:35;;;;;;;0.90;0.68;;;;;;;15.96;75.32;100904.66;5071733;28;20060;-67
2022/06/12 09:58:22;;;;;;;0.88;0.60;;;;;;;15.99;75.45;100922.25;5072997;28;20063;-67
2022/06/12 10:00:59;;;;;;;1.20;0.60;;;;;;;15.86;75.57;100915.25;5073038;28;20043;-67
2022/06/12 10:03:42;;;;;;;0.60;0.50;;;;;;;15.87;75.50;100913.38;5073700;28;20035;-67
2022/06/12 10:06:38;;;;;;;0.57;0.40;;;;;;;16.02;74.14;100898.31;5072335;28;20028;-67
2022/06/12 10:09:37;;;;;;;0.47;0.22;;;;;;;15.90;74.23;100916.44;5073856;28;20032;-67
2022/06/12 10:12:17;;;;;;;0.80;0.70;;;;;;;15.85;74.48;100919.03;5060355;28;20548;-67
2022/06/12 10:14:52;;;;;;;0.30;0.28;;;;;;;15.81;74.35;100915.16;5073900;28;20055;-67
2022/06/12 10:17:24;;;;;;;0.43;0.30;;;;;;;15.67;74.13;100920.00;5071538;28;20021;-67
2022/06/12 10:20:01;;;;;;;0.20;0.20;;;;;;;15.63;74.30;100912.63;5070540;28;20131;-67
2022/06/12 10:22:30;;;;;;;1.20;0.30;;;;;;;15.52;74.72;100908.84;5073075;28;20571;-66
2022/06/12 10:24:58;;;;;;;1.30;0.40;;;;;;;15.52;74.95;100904.28;5071806;28;20502;-67
2022/06/12 10:27:26;;;;;;;1.17;0.40;;;;;;;15.52;74.77;100915.06;5075117;28;20101;-67
2022/06/12 10:30:03;;;;;;;0.25;0.25;;;;;;;15.53;74.73;100897.81;5083257;28;20020;-67
2022/06/12 10:32:48;;;;;;;0.35;0.35;;;;;;;15.50;74.70;100892.91;5076530;28;20021;-67
2022/06/12 10:35:21;;;;;;;0.20;0.20;;;;;;;15.36;75.13;100885.28;5074072;28;20476;-67
2022/06/12 10:37:48;;;;;;;0.30;0.30;;;;;;;15.23;75.97;100889.06;5074092;28;20078;-67
2022/06/12 10:40:22;;;;;;;0.82;0.20;;;;;;;15.27;75.78;100884.84;5073943;28;20028;-68
2022/06/12 10:43:00;;;;;;;0.20;0.20;;;;;;;15.22;75.78;100882.84;5073396;28;20020;-67
2022/06/12 10:45:30;;;;;;;0.20;0.20;;;;;;;15.11;76.32;100885.56;5079524;28;20025;-67
2022/06/12 10:48:02;;;;;;;0.68;0.40;;;;;;;15.13;76.43;100872.66;5075097;28;20056;-67
2022/06/12 10:50:32;;;;;;;0.47;0.38;;;;;;;15.07;76.21;100889.78;5073656;28;20052;-67
2022/06/12 10:53:10;;;;;;;0.35;0.30;;;;;;;15.18;76.07;100889.78;5073451;28;20493;-67
2022/06/12 10:55:48;;;;;;;0.30;0.30;;;;;;;15.09;76.53;100901.13;5073695;28;20546;-67
2022/06/12 10:58:51;;;;;;;0.25;0.25;;;;;;;15.16;76.85;100891.06;5073491;28;20465;-67
2022/06/12 11:01:27;;;;;;;1.63;0.30;;;;;;;14.94;77.54;100902.44;5073496;28;20016;-67
2022/06/12 11:04:16;;;;;;;0.65;0.30;;;;;;;14.92;78.00;100904.53;5073985;28;20020;-67
2022/06/12 11:06:51;;;;;;;0.30;0.30;;;;;;;14.98;77.57;100903.59;5073446;28;20097;-67
2022/06/12 11:09:25;;;;;;;0.20;0.20;;;;;;;15.12;77.05;100897.97;5073322;28;20078;-67
2022/06/12 11:12:00;;;;;;;0.20;0.20;;;;;;;15.04;77.79;100894.56;5075087;28;20055;-67
2022/06/12 11:15:00;;;;;;;0.75;0.20;;;;;;;15.14;77.55;100890.47;5073121;28;20024;-67
2022/06/12 11:17:51;;;;;;;0.60;0.40;;;;;;;15.20;76.95;100884.13;5076840;28;20036;-67
2022/06/12 11:20:20;;;;;;;0.40;0.20;;;;;;;15.06;77.78;100891.66;5076703;28;20025;-67
2022/06/12 11:22:52;;;;;;;0.32;0.30;;;;;;;15.08;77.83;100880.63;5074948;28;20044;-68
2022/06/12 11:25:37;;;;;;;0.50;0.50;;;;;;;15.10;77.79;100881.19;5084534;28;20039;-67
2022/06/12 11:28:19;;;;;;;0.40;0.40;;;;;;;15.04;78.04;100874.88;5070686;28;20044;-67
2022/06/12 11:30:59;;;;;;;1.10;0.32;;;;;;;15.05;78.00;100874.66;5086931;28;20115;-68
2022/06/12 11:33:27;;;;;;;0.43;0.40;;;;;;;15.07;78.22;100879.81;5070103;28;20028;-68
2022/06/12 11:36:00;;;;;;;0.40;0.30;;;;;;;14.95;78.52;100871.72;5071897;28;20441;-68
2022/06/12 11:38:35;;;;;;;0.77;0.35;;;;;;;15.03;78.40;100878.63;5072793;28;20029;-67
2022/06/12 11:41:14;;;;;;;0.98;0.30;;;;;;;15.05;78.04;100873.84;5087824;28;20067;-68
2022/06/12 11:43:59;;;;;;;0.40;0.40;;;;;;;14.93;78.88;100873.81;5092645;28;20032;-68
2022/06/12 11:46:49;;;;;;;1.95;0.20;;;;;;;14.97;78.75;100871.47;5071259;28;20084;-68
2022/06/12 11:49:22;;;;;;;0.30;0.20;;;;;;;14.79;79.47;100883.19;5082093;28;20103;-67
2022/06/12 11:52:01;;;;;;;0.30;0.30;;;;;;;14.80;79.89;100890.22;5081150;28;20071;-67
2022/06/12 11:54:56;;;;;;;0.28;0.22;;;;;;;14.80;80.01;100898.31;5085639;28;20421;-67
2022/06/12 11:57:50;;;;;;;0.38;0.22;;;;;;;14.90;79.32;100879.69;5071010;28;20487;-68
2022/06/12 12:00:36;;;;;;;0.45;0.40;;;;;;;14.87;79.53;100865.84;5076186;23;20056;-67
2022/06/12 12:03:22;;;;;;;0.20;0.20;;;;;;;14.96;79.19;100862.56;5059204;28;20579;-68
2022/06/12 12:06:11;;;;;;;0.65;0.30;;;;;;;15.07;78.57;100881.69;5072444;28;20024;-67
2022/06/12 12:08:44;;;;;;;0.85;0.40;;;;;;;15.16;78.15;100872.19;5071864;28;20098;-67
2022/06/12 12:11:25;;;;;;;2.28;0.50;;;;;;;15.08;79.06;100867.97;5071934;28;20049;-67
2022/06/12 12:13:55;;;;;;;0.30;0.30;;;;;;;15.12;78.67;100871.03;5072456;28;20086;-68